Time;durP1;ratioP1;P1;durP2;ratioP2;P2;SDS_P1;SDS_P2;PMS_P1;PMS_P2;Temp;Humidity;BMP_temperature;BMP_pressure;BME280_temperature;BME280_humidity;BME280_pressure;Samples;Min_cycle;Max_cycle;Signal;HPM_P1;HPM_P2
2020/12/31 00:01:54;;;;;;;13.83;9.10;;;;;;;9.90;41.96;100550.31;5092308;28;20024;-71
2020/12/31 00:04:20;;;;;;;13.17;8.10;;;;;;;10.14;41.74;100544.53;5092352;28;20031;-72
2020/12/31 00:06:46;;;;;;;9.77;7.07;;;;;;;10.09;41.61;100544.66;5092308;28;20063;-71
2020/12/31 00:09:11;;;;;;;11.67;8.63;;;;;;;9.96;41.86;100549.06;5092283;28;20102;-71
2020/12/31 00:11:37;;;;;;;11.80;7.90;;;;;;;10.05;41.78;100551.84;5092349;28;20016;-73
2020/12/31 00:14:07;;;;;;;10.07;7.17;;;;;;;9.80;42.25;100554.13;5092192;28;20047;-71
2020/12/31 00:16:36;;;;;;;12.47;8.43;;;;;;;9.93;41.80;100549.72;5092336;28;20486;-72
2020/12/31 00:19:05;;;;;;;12.47;7.90;;;;;;;9.75;42.29;100546.09;5092185;28;20019;-72
2020/12/31 00:21:30;;;;;;;13.23;9.17;;;;;;;9.90;42.05;100547.59;5092261;28;20082;-71
2020/12/31 00:23:56;;;;;;;12.77;8.60;;;;;;;9.99;41.86;100553.91;5074088;28;20023;-71
2020/12/31 00:26:22;;;;;;;14.37;8.30;;;;;;;9.80;42.39;100561.50;5091992;28;20466;-78
2020/12/31 00:28:48;;;;;;;16.13;8.63;;;;;;;9.91;42.05;100558.22;5077016;28;20035;-71
2020/12/31 00:31:14;;;;;;;11.57;7.93;;;;;;;9.83;42.39;100561.69;5096060;28;20028;-71
2020/12/31 00:33:40;;;;;;;12.37;8.40;;;;;;;9.63;42.77;100575.84;5095973;28;20050;-71
2020/12/31 00:36:05;;;;;;;10.70;7.90;;;;;;;9.83;42.49;100582.72;5095767;28;20094;-71
2020/12/31 00:38:31;;;;;;;12.50;7.67;;;;;;;9.83;42.35;100569.09;5095855;28;20543;-70
2020/12/31 00:40:58;;;;;;;14.33;8.70;;;;;;;9.99;42.13;100571.09;5095822;28;20519;-70
2020/12/31 00:43:24;;;;;;;16.37;9.70;;;;;;;10.04;41.74;100569.34;5077605;28;20031;-70
2020/12/31 00:45:50;;;;;;;13.57;9.20;;;;;;;9.91;42.00;100566.41;5095432;28;20111;-70
2020/12/31 00:48:15;;;;;;;14.90;9.20;;;;;;;9.96;41.83;100568.97;5077302;28;20035;-70
2020/12/31 00:50:41;;;;;;;11.97;8.30;;;;;;;9.88;42.30;100569.75;5095589;28;20024;-70
2020/12/31 00:53:06;;;;;;;11.93;8.87;;;;;;;9.89;42.05;100568.63;5095824;28;20522;-70
2020/12/31 00:55:32;;;;;;;10.77;7.83;;;;;;;10.02;41.77;100566.94;5095404;28;20107;-70
2020/12/31 00:57:58;;;;;;;12.90;8.10;;;;;;;9.97;41.71;100562.44;5095391;28;20115;-70
2020/12/31 01:00:23;;;;;;;11.53;7.97;;;;;;;10.00;41.66;100547.34;5095442;28;20039;-70
2020/12/31 01:02:49;;;;;;;12.37;9.27;;;;;;;10.00;41.78;100552.78;5095431;28;20031;-72
2020/12/31 01:05:16;;;;;;;10.80;7.40;;;;;;;10.01;41.66;100548.94;5076944;28;20081;-72
2020/12/31 01:07:42;;;;;;;10.80;6.70;;;;;;;10.11;41.75;100542.41;5095159;28;20032;-72
2020/12/31 01:10:09;;;;;;;9.80;6.50;;;;;;;10.10;41.61;100535.34;5095248;28;20034;-72
2020/12/31 01:12:35;;;;;;;9.50;6.60;;;;;;;9.98;41.68;100549.59;5095235;28;20081;-71
2020/12/31 01:15:02;;;;;;;12.83;7.53;;;;;;;10.01;41.66;100551.69;5095072;28;20074;-71
2020/12/31 01:17:28;;;;;;;10.33;7.00;;;;;;;9.97;41.79;100551.50;5095037;28;20024;-71
2020/12/31 01:19:53;;;;;;;11.33;6.30;;;;;;;10.04;41.81;100552.97;5095110;28;20150;-71
2020/12/31 01:22:19;;;;;;;9.87;6.87;;;;;;;10.03;41.73;100541.25;5094932;28;20110;-71
2020/12/31 01:24:45;;;;;;;11.50;7.90;;;;;;;10.05;41.66;100543.66;5095000;28;20059;-71
2020/12/31 01:27:12;;;;;;;9.60;7.07;;;;;;;10.09;41.55;100544.66;5094844;28;20035;-72
2020/12/31 01:29:37;;;;;;;10.80;7.03;;;;;;;10.12;41.59;100542.06;5094869;28;20028;-71
2020/12/31 01:32:03;;;;;;;13.07;7.10;;;;;;;10.13;41.72;100551.09;5094847;28;20078;-71
2020/12/31 01:34:29;;;;;;;8.17;5.87;;;;;;;10.09;41.52;100547.38;5094969;28;20028;-78
2020/12/31 01:36:55;;;;;;;10.27;6.27;;;;;;;10.12;41.65;100552.19;5094640;28;20040;-71
2020/12/31 01:39:21;;;;;;;12.17;5.93;;;;;;;10.10;41.42;100549.78;5094197;28;20469;-71
2020/12/31 01:41:47;;;;;;;8.50;5.23;;;;;;;10.10;41.78;100541.59;5094716;28;20028;-71
2020/12/31 01:44:13;;;;;;;7.97;5.43;;;;;;;10.15;41.45;100546.13;5094629;28;20032;-71
2020/12/31 01:46:44;;;;;;;7.17;5.60;;;;;;;10.17;41.35;100543.88;5094443;28;20115;-72
2020/12/31 01:49:12;;;;;;;7.87;5.20;;;;;;;10.20;41.54;100540.50;5094487;28;20032;-71
2020/12/31 01:51:40;;;;;;;7.63;4.70;;;;;;;10.23;41.77;100537.19;5094429;28;20111;-73
2020/12/31 01:54:07;;;;;;;8.60;5.47;;;;;;;10.24;41.51;100533.34;5094253;28;20042;-71
2020/12/31 01:56:36;;;;;;;8.50;5.10;;;;;;;10.15;41.72;100525.09;5094296;28;20032;-71
2020/12/31 01:59:02;;;;;;;12.07;5.03;;;;;;;10.21;41.67;100532.03;5094185;28;20466;-72
2020/12/31 02:01:28;;;;;;;9.10;4.77;;;;;;;10.24;41.55;100519.69;5094197;28;20103;-72
2020/12/31 02:03:55;;;;;;;7.20;5.00;;;;;;;10.22;41.71;100530.09;5094078;28;20027;-71
2020/12/31 02:06:26;;;;;;;8.60;4.90;;;;;;;10.02;42.21;100520.53;5094014;28;20394;-71
2020/12/31 02:08:52;;;;;;;8.47;5.07;;;;;;;10.28;41.33;100521.47;5094052;28;20119;-71
2020/12/31 02:11:20;;;;;;;6.93;4.57;;;;;;;10.24;41.59;100525.16;5094160;28;20031;-71
2020/12/31 02:13:46;;;;;;;7.97;4.77;;;;;;;10.22;41.59;100528.19;5075882;28;20043;-72
2020/12/31 02:16:13;;;;;;;7.17;4.57;;;;;;;10.05;41.95;100524.53;5093945;28;20024;-71
2020/12/31 02:18:56;;;;;;;6.20;4.67;;;;;;;9.89;42.65;100529.59;5094192;28;20473;-72
2020/12/31 02:21:29;;;;;;;8.73;4.87;;;;;;;9.82;42.83;100521.84;5093775;28;20051;-71
2020/12/31 02:23:56;;;;;;;6.27;4.30;;;;;;;9.94;42.55;100522.09;5094141;28;20024;-71
2020/12/31 02:26:23;;;;;;;5.40;3.47;;;;;;;9.83;42.55;100514.50;5093685;28;20052;-74
2020/12/31 02:28:49;;;;;;;7.97;3.90;;;;;;;9.69;43.11;100514.59;5094090;28;20107;-71
2020/12/31 02:31:15;;;;;;;5.50;3.87;;;;;;;9.82;42.63;100510.94;5093709;28;20028;-71
2020/12/31 02:33:51;;;;;;;5.90;3.83;;;;;;;9.49;43.84;100515.09;5093711;28;20030;-72
2020/12/31 02:36:19;;;;;;;7.67;3.63;;;;;;;9.44;43.74;100519.53;5093465;28;20563;-71
2020/12/31 02:38:46;;;;;;;7.17;4.10;;;;;;;9.64;43.16;100520.16;5093600;28;20143;-71
2020/12/31 02:41:12;;;;;;;7.77;3.60;;;;;;;9.66;43.08;100517.91;5093529;28;20039;-72
2020/12/31 02:43:40;;;;;;;6.57;4.40;;;;;;;9.71;43.03;100524.06;5093712;28;20028;-75
2020/12/31 02:46:08;;;;;;;7.83;4.33;;;;;;;9.48;43.24;100517.00;5093328;28;20589;-72
2020/12/31 02:48:34;;;;;;;6.23;4.13;;;;;;;9.41;43.61;100517.44;5093577;28;20106;-78
2020/12/31 02:51:00;;;;;;;6.67;4.33;;;;;;;9.21;44.44;100515.22;5092453;28;20493;-71
2020/12/31 02:53:26;;;;;;;5.27;3.80;;;;;;;9.42;43.83;100519.06;5093317;28;20031;-71
2020/12/31 02:55:52;;;;;;;8.80;3.93;;;;;;;9.32;44.17;100522.03;5093234;28;20028;-72
2020/12/31 02:58:18;;;;;;;7.70;4.67;;;;;;;9.35;43.66;100515.16;5093256;28;20443;-72
2020/12/31 03:00:43;;;;;;;6.80;4.10;;;;;;;9.35;43.95;100521.41;5093213;28;20110;-71
2020/12/31 03:03:09;;;;;;;8.17;4.23;;;;;;;9.24;44.23;100519.25;5093091;28;20035;-71
2020/12/31 03:05:35;;;;;;;6.50;4.10;;;;;;;9.27;44.35;100515.91;5093280;28;20411;-71
2020/12/31 03:08:01;;;;;;;7.33;3.93;;;;;;;9.54;43.19;100520.44;5093051;28;20483;-78
2020/12/31 03:10:27;;;;;;;7.13;4.50;;;;;;;9.31;43.71;100514.97;5092965;28;20036;-71
2020/12/31 03:12:52;;;;;;;9.03;5.17;;;;;;;9.09;44.49;100513.03;5092914;28;20028;-71
2020/12/31 03:15:20;;;;;;;7.70;5.33;;;;;;;9.16;44.61;100504.44;5092949;28;20038;-71
2020/12/31 03:17:45;;;;;;;10.17;5.20;;;;;;;9.31;44.03;100490.44;5092800;28;20038;-72
2020/12/31 03:20:11;;;;;;;7.77;4.90;;;;;;;9.45;43.51;100493.09;5092907;28;20032;-72
2020/12/31 03:22:36;;;;;;;11.27;5.40;;;;;;;9.31;44.24;100492.38;5092894;28;20032;-71
2020/12/31 03:25:03;;;;;;;8.23;4.83;;;;;;;9.30;44.06;100501.66;5092745;28;20027;-71
2020/12/31 03:27:29;;;;;;;9.30;4.80;;;;;;;9.07;44.95;100498.94;5092980;28;20028;-72
2020/12/31 03:29:55;;;;;;;8.87;5.37;;;;;;;9.28;44.04;100499.22;5092777;28;20043;-71
2020/12/31 03:32:20;;;;;;;9.43;5.47;;;;;;;8.88;45.13;100498.28;5093052;28;20082;-71
2020/12/31 03:34:46;;;;;;;7.63;5.17;;;;;;;8.95;44.68;100500.56;5074441;28;20434;-71
2020/12/31 03:37:12;;;;;;;8.97;5.43;;;;;;;9.27;44.05;100497.63;5092726;28;20032;-72
2020/12/31 03:39:38;;;;;;;10.07;4.60;;;;;;;8.90;45.26;100504.22;5092619;28;20020;-71
2020/12/31 03:42:04;;;;;;;12.47;5.97;;;;;;;8.98;45.16;100495.31;5092493;28;20024;-71
2020/12/31 03:44:30;;;;;;;9.70;6.27;;;;;;;9.13;44.59;100502.31;5091212;28;20020;-71
2020/12/31 03:46:56;;;;;;;9.00;5.67;;;;;;;9.07;44.39;100489.94;5092766;28;20032;-71
2020/12/31 03:49:22;;;;;;;10.33;5.90;;;;;;;9.01;44.76;100493.91;5092475;28;20490;-71
2020/12/31 03:51:47;;;;;;;12.03;6.50;;;;;;;9.05;44.57;100492.97;5092450;28;20070;-77
2020/12/31 03:54:13;;;;;;;11.93;5.30;;;;;;;9.19;43.96;100487.47;5092476;28;20024;-76
2020/12/31 03:56:38;;;;;;;11.63;6.53;;;;;;;9.37;43.74;100483.75;5092718;28;20024;-71
2020/12/31 03:59:04;;;;;;;11.23;5.83;;;;;;;9.36;43.45;100484.84;5092454;28;20429;-71
2020/12/31 04:01:31;;;;;;;8.87;5.47;;;;;;;9.39;43.31;100486.97;5093458;28;20024;-71
2020/12/31 04:03:57;;;;;;;10.50;6.60;;;;;;;9.35;43.20;100488.69;5078352;28;20056;-72
2020/12/31 04:06:23;;;;;;;10.43;5.67;;;;;;;9.37;43.48;100491.09;5096404;28;20682;-71
2020/12/31 04:08:48;;;;;;;9.40;6.03;;;;;;;9.32;43.56;100485.78;5096531;28;20070;-71
2020/12/31 04:11:14;;;;;;;9.37;6.27;;;;;;;9.05;44.23;100489.44;5096407;28;20391;-71
2020/12/31 04:13:40;;;;;;;11.13;7.80;;;;;;;9.43;43.53;100490.66;5096243;28;20031;-71
2020/12/31 04:16:06;;;;;;;12.43;5.97;;;;;;;9.60;42.96;100479.06;5096294;28;20492;-71
2020/12/31 04:18:31;;;;;;;12.53;6.67;;;;;;;9.64;42.77;100473.78;5096444;28;20024;-71
2020/12/31 04:20:57;;;;;;;15.10;6.40;;;;;;;9.60;42.95;100481.00;5096507;28;20020;-72
2020/12/31 04:23:23;;;;;;;9.57;5.97;;;;;;;9.29;43.45;100481.75;5096115;28;20027;-71
2020/12/31 04:25:50;;;;;;;11.30;7.43;;;;;;;9.50;42.66;100492.97;5096351;28;20035;-71
2020/12/31 04:28:15;;;;;;;10.17;6.47;;;;;;;9.49;43.03;100498.72;5096284;28;20394;-71
2020/12/31 04:30:41;;;;;;;10.77;6.80;;;;;;;9.50;42.92;100494.88;5077786;28;20039;-72
2020/12/31 04:33:07;;;;;;;10.70;6.67;;;;;;;9.62;42.70;100492.41;5095992;28;20035;-71
2020/12/31 04:35:32;;;;;;;9.80;6.53;;;;;;;9.42;43.04;100482.81;5095780;28;20517;-72
2020/12/31 04:37:58;;;;;;;10.20;6.90;;;;;;;9.65;42.49;100491.75;5095993;28;20020;-72
2020/12/31 04:40:23;;;;;;;9.53;6.20;;;;;;;9.49;42.56;100488.63;5077658;28;20032;-71
2020/12/31 04:42:52;;;;;;;12.00;7.03;;;;;;;9.33;42.89;100490.13;5095733;28;20490;-71
2020/12/31 04:45:19;;;;;;;11.57;8.43;;;;;;;9.36;43.23;100490.28;5095909;28;20408;-71
2020/12/31 04:47:59;;;;;;;10.27;6.90;;;;;;;9.45;42.88;100483.00;5095539;28;20028;-71
2020/12/31 04:50:31;;;;;;;10.20;6.80;;;;;;;9.61;42.57;100493.53;5095696;28;20490;-71
2020/12/31 04:53:07;;;;;;;9.60;7.43;;;;;;;9.42;42.68;100485.53;5095644;28;20028;-71
2020/12/31 04:55:41;;;;;;;8.80;6.80;;;;;;;9.40;42.88;100488.56;5095634;28;20020;-71
2020/12/31 04:58:09;;;;;;;11.40;6.87;;;;;;;9.27;43.04;100489.44;5095517;28;20023;-71
2020/12/31 05:00:35;;;;;;;10.73;6.83;;;;;;;9.39;42.77;100489.69;5095472;28;20016;-71
2020/12/31 05:03:01;;;;;;;10.83;6.40;;;;;;;9.49;42.71;100482.38;5095477;28;20016;-71
2020/12/31 05:05:27;;;;;;;9.73;7.23;;;;;;;9.08;43.21;100478.72;5095343;28;20424;-71
2020/12/31 05:07:54;;;;;;;9.40;7.90;;;;;;;9.29;42.76;100479.03;5095226;28;20028;-71
2020/12/31 05:10:19;;;;;;;10.57;7.70;;;;;;;9.32;42.71;100478.41;5095136;28;20493;-71
2020/12/31 05:12:45;;;;;;;8.93;6.07;;;;;;;9.29;42.74;100472.75;5094809;28;20028;-71
2020/12/31 05:15:10;;;;;;;10.27;6.23;;;;;;;9.32;42.73;100475.69;5095007;28;20169;-71
2020/12/31 05:17:36;;;;;;;10.23;7.13;;;;;;;9.30;42.83;100477.13;5095145;28;20020;-71
2020/12/31 05:20:13;;;;;;;8.50;5.77;;;;;;;9.22;42.87;100477.84;5095128;28;20531;-71
2020/12/31 05:22:39;;;;;;;12.60;6.80;;;;;;;9.13;43.02;100472.34;5095053;28;20032;-71
2020/12/31 05:25:05;;;;;;;12.33;6.30;;;;;;;8.85;43.97;100475.19;5076863;28;20398;-71
2020/12/31 05:27:31;;;;;;;9.80;5.90;;;;;;;8.94;43.44;100479.91;5094826;28;20028;-74
2020/12/31 05:30:03;;;;;;;10.63;7.03;;;;;;;8.94;43.22;100469.00;5076831;28;20028;-71
2020/12/31 05:32:31;;;;;;;9.77;6.00;;;;;;;8.80;43.97;100471.75;5094862;28;20028;-71
2020/12/31 05:34:57;;;;;;;9.57;5.83;;;;;;;8.51;44.66;100478.38;5094613;28;20051;-71
2020/12/31 05:37:25;;;;;;;9.07;5.97;;;;;;;8.73;44.32;100468.66;5094965;28;20047;-71
2020/12/31 05:40:07;;;;;;;9.30;6.27;;;;;;;8.25;45.89;100461.75;5094722;28;20436;-71
2020/12/31 05:42:35;;;;;;;9.67;6.40;;;;;;;8.38;45.27;100462.06;5094682;28;20039;-71
2020/12/31 05:45:12;;;;;;;9.20;5.83;;;;;;;8.52;44.79;100468.28;5094667;28;20106;-71
2020/12/31 05:47:53;;;;;;;8.03;6.07;;;;;;;8.42;45.72;100465.78;5094548;28;20032;-71
2020/12/31 05:50:31;;;;;;;7.43;5.37;;;;;;;8.73;44.47;100457.75;5094533;28;20040;-71
2020/12/31 05:52:56;;;;;;;8.20;5.33;;;;;;;8.65;44.56;100453.84;5094646;28;20031;-71
2020/12/31 05:55:24;;;;;;;9.10;5.53;;;;;;;8.68;44.40;100445.03;5076387;28;20471;-71
2020/12/31 05:57:51;;;;;;;8.67;5.67;;;;;;;8.73;44.00;100447.66;5094556;28;20042;-71
2020/12/31 06:00:19;;;;;;;9.37;6.07;;;;;;;8.85;44.24;100447.94;5094214;28;20020;-71
2020/12/31 06:02:56;;;;;;;8.77;6.20;;;;;;;8.77;44.33;100450.59;5094253;28;20032;-71
2020/12/31 06:05:23;;;;;;;9.53;6.00;;;;;;;8.72;44.35;100443.31;5094307;28;20028;-77
2020/12/31 06:07:55;;;;;;;7.40;5.53;;;;;;;8.67;44.65;100443.44;5094075;28;20036;-75
2020/12/31 06:10:31;;;;;;;7.33;5.70;;;;;;;8.76;44.21;100438.06;5094084;28;20062;-71
2020/12/31 06:13:02;;;;;;;9.17;5.57;;;;;;;8.58;44.75;100429.75;5094177;28;20023;-71
2020/12/31 06:15:29;;;;;;;10.67;5.43;;;;;;;8.77;44.14;100436.97;5094017;28;20107;-71
2020/12/31 06:17:55;;;;;;;8.67;5.20;;;;;;;8.76;44.08;100433.41;5093955;28;20077;-71
2020/12/31 06:20:25;;;;;;;9.13;5.50;;;;;;;8.32;45.38;100440.38;5093895;28;20024;-78
2020/12/31 06:22:58;;;;;;;6.50;4.95;;;;;;;8.50;45.23;100433.19;5093676;28;20032;-71
2020/12/31 06:25:47;;;;;;;9.43;5.07;;;;;;;8.68;44.80;100438.78;5093813;28;20028;-71
2020/12/31 06:28:15;;;;;;;9.05;5.10;;;;;;;8.71;44.79;100447.16;5093810;28;20024;-71
2020/12/31 06:30:52;;;;;;;9.27;4.67;;;;;;;8.68;44.76;100434.16;5093740;28;20546;-76
2020/12/31 06:33:24;;;;;;;8.83;4.77;;;;;;;8.91;44.65;100448.59;5093673;28;20063;-71
2020/12/31 06:36:08;;;;;;;7.60;4.40;;;;;;;8.75;44.94;100439.16;5075329;28;20067;-71
2020/12/31 06:38:38;;;;;;;12.70;5.33;;;;;;;8.64;44.89;100438.63;5093725;28;20063;-71
2020/12/31 06:41:25;;;;;;;8.47;4.67;;;;;;;8.90;44.25;100447.78;5093537;28;20027;-71
2020/12/31 06:44:05;;;;;;;7.33;4.33;;;;;;;8.92;44.22;100450.22;5093327;28;20029;-71
2020/12/31 06:46:38;;;;;;;11.30;5.03;;;;;;;9.06;43.92;100456.41;5093638;28;20066;-71
2020/12/31 06:49:03;;;;;;;6.90;4.70;;;;;;;9.24;43.45;100459.28;5093433;28;20470;-71
2020/12/31 06:51:29;;;;;;;7.80;4.47;;;;;;;9.15;43.72;100461.94;5093324;28;20035;-71
2020/12/31 06:53:54;;;;;;;6.97;4.27;;;;;;;9.42;42.83;100464.50;5075086;28;20039;-71
2020/12/31 06:56:49;;;;;;;7.97;4.47;;;;;;;9.45;43.06;100465.84;5093184;28;20027;-71
2020/12/31 06:59:34;;;;;;;9.50;5.07;;;;;;;9.15;44.09;100465.47;5093273;28;20028;-71
2020/12/31 07:02:11;;;;;;;5.67;3.80;;;;;;;9.22;44.13;100454.13;5091972;28;20077;-71
2020/12/31 07:04:41;;;;;;;7.07;3.57;;;;;;;9.28;44.62;100452.88;5074722;28;20406;-71
2020/12/31 07:07:19;;;;;;;7.78;4.03;;;;;;;9.38;44.53;100454.56;5093014;28;20074;-71
2020/12/31 07:09:58;;;;;;;7.83;4.60;;;;;;;9.01;45.87;100453.81;5093098;28;20081;-71
2020/12/31 07:12:41;;;;;;;7.50;3.80;;;;;;;9.48;45.03;100465.19;5092952;28;20038;-72
2020/12/31 07:15:10;;;;;;;5.80;3.00;;;;;;;9.68;44.60;100463.88;5093279;28;20039;-78
2020/12/31 07:17:41;;;;;;;10.53;3.60;;;;;;;9.64;45.04;100462.88;5091024;28;20024;-71
2020/12/31 07:20:12;;;;;;;5.67;2.93;;;;;;;9.62;45.44;100465.91;5072848;28;20028;-71
2020/12/31 07:22:39;;;;;;;5.90;2.93;;;;;;;9.70;45.20;100461.63;5073471;28;20024;-71
2020/12/31 07:25:06;;;;;;;9.47;3.20;;;;;;;9.78;44.81;100468.25;5090881;28;20538;-71
2020/12/31 07:27:35;;;;;;;8.97;3.73;;;;;;;9.95;44.32;100460.94;5090823;28;20383;-71
2020/12/31 07:30:07;;;;;;;11.67;3.60;;;;;;;9.87;44.92;100466.34;5090920;28;20031;-72
2020/12/31 07:33:02;;;;;;;6.17;3.10;;;;;;;9.86;44.53;100465.56;5092271;28;20024;-71
2020/12/31 07:35:33;;;;;;;6.43;3.40;;;;;;;9.74;44.78;100466.13;5092480;28;20044;-71
2020/12/31 07:38:04;;;;;;;8.40;3.03;;;;;;;9.74;44.60;100460.66;5092238;28;20024;-71
2020/12/31 07:40:37;;;;;;;4.60;2.43;;;;;;;9.47;45.26;100455.41;5092731;28;20474;-71
2020/12/31 07:43:04;;;;;;;4.90;3.17;;;;;;;9.67;44.59;100451.31;5092712;28;20040;-71
2020/12/31 07:45:31;;;;;;;8.10;3.27;;;;;;;9.74;44.22;100454.41;5074507;28;20425;-71
2020/12/31 07:47:58;;;;;;;5.43;2.83;;;;;;;9.70;44.26;100456.97;5092550;28;20032;-71
2020/12/31 07:50:23;;;;;;;12.03;3.20;;;;;;;9.42;45.28;100460.97;5092772;28;20032;-71
2020/12/31 07:52:50;;;;;;;6.10;2.30;;;;;;;9.62;44.67;100460.47;5092382;28;20378;-71
2020/12/31 07:55:16;;;;;;;4.07;2.33;;;;;;;9.58;44.41;100475.03;5092737;28;20127;-71
2020/12/31 07:57:42;;;;;;;6.57;2.70;;;;;;;9.55;44.57;100481.94;5074357;28;20033;-71
2020/12/31 08:00:13;;;;;;;5.60;2.73;;;;;;;9.44;44.87;100484.09;5092331;28;20039;-71
2020/12/31 08:02:46;;;;;;;5.80;3.27;;;;;;;9.37;45.19;100472.84;5092464;28;20034;-71
2020/12/31 08:05:14;;;;;;;4.20;2.23;;;;;;;9.58;44.48;100464.13;5092463;28;20031;-72
2020/12/31 08:07:41;;;;;;;10.30;2.53;;;;;;;9.37;45.20;100475.56;5092357;28;20028;-71
2020/12/31 08:10:08;;;;;;;8.07;3.80;;;;;;;9.43;45.23;100478.97;5092411;28;20021;-72
2020/12/31 08:12:34;;;;;;;6.83;2.73;;;;;;;9.67;44.51;100467.69;5092324;28;20028;-75
2020/12/31 08:14:59;;;;;;;8.03;2.80;;;;;;;9.67;44.35;100462.25;5092274;28;20021;-72
2020/12/31 08:17:25;;;;;;;5.10;2.50;;;;;;;9.73;44.36;100461.78;5092291;28;20032;-72
2020/12/31 08:19:50;;;;;;;6.80;2.57;;;;;;;9.70;44.42;100464.34;5089055;28;20077;-78
2020/12/31 08:22:31;;;;;;;6.20;2.33;;;;;;;9.69;44.49;100479.13;5106766;28;20032;-78
2020/12/31 08:25:05;;;;;;;5.10;2.07;;;;;;;9.81;44.39;100482.06;5092290;28;20081;-77
2020/12/31 08:27:36;;;;;;;5.87;2.30;;;;;;;9.63;44.55;100478.44;5074100;28;20360;-72
2020/12/31 08:30:04;;;;;;;5.13;2.63;;;;;;;9.75;44.34;100469.69;5094593;28;20031;-72
2020/12/31 08:32:50;;;;;;;5.23;2.50;;;;;;;9.76;44.87;100465.03;5092115;28;20111;-72
2020/12/31 08:35:24;;;;;;;8.97;3.40;;;;;;;9.78;44.42;100477.22;5091910;28;20052;-71
2020/12/31 08:38:08;;;;;;;6.53;3.07;;;;;;;9.83;44.50;100476.31;5092137;28;20039;-71
2020/12/31 08:40:47;;;;;;;7.33;2.73;;;;;;;9.89;44.25;100486.75;5092160;28;20134;-71
2020/12/31 08:43:25;;;;;;;5.30;2.40;;;;;;;9.86;44.62;100494.75;5073961;28;20659;-75
2020/12/31 08:45:52;;;;;;;7.27;2.50;;;;;;;10.07;43.99;100487.63;5074005;28;20035;-74
2020/12/31 08:48:29;;;;;;;4.30;2.63;;;;;;;10.16;43.76;100485.72;5092594;28;20107;-75
2020/12/31 08:51:06;;;;;;;4.23;2.30;;;;;;;10.21;43.67;100485.59;5095765;28;20108;-75
2020/12/31 08:53:33;;;;;;;5.47;2.07;;;;;;;10.20;44.05;100480.44;5095552;28;20099;-75
2020/12/31 08:55:59;;;;;;;5.37;2.77;;;;;;;10.18;43.85;100483.50;5095480;28;20024;-75
2020/12/31 08:58:30;;;;;;;4.00;2.13;;;;;;;10.11;44.13;100485.88;5077411;28;20581;-75
2020/12/31 09:00:57;;;;;;;4.40;2.27;;;;;;;10.27;43.99;100489.00;5095442;28;20071;-75
2020/12/31 09:03:24;;;;;;;3.40;1.73;;;;;;;10.26;44.08;100490.13;5092625;28;20032;-75
2020/12/31 09:06:00;;;;;;;4.63;2.73;;;;;;;10.38;43.87;100479.41;5087366;28;20471;-74
2020/12/31 09:08:32;;;;;;;3.20;2.00;;;;;;;10.43;43.71;100487.47;5084381;28;20052;-75
2020/12/31 09:11:05;;;;;;;3.57;2.40;;;;;;;10.55;43.76;100493.09;5079930;28;20478;-75
2020/12/31 09:13:36;;;;;;;4.87;1.90;;;;;;;10.48;43.85;100498.22;5092752;28;20032;-75
2020/12/31 09:16:13;;;;;;;3.23;2.23;;;;;;;10.63;43.68;100490.69;5095063;28;20060;-75
2020/12/31 09:18:43;;;;;;;4.13;2.30;;;;;;;10.63;43.83;100493.44;5095094;28;20055;-75
2020/12/31 09:21:09;;;;;;;3.47;2.08;;;;;;;10.67;43.62;100497.16;5094967;28;20119;-74
2020/12/31 09:23:36;;;;;;;3.57;1.80;;;;;;;10.70;43.75;100496.50;5094048;28;20036;-75
2020/12/31 09:26:04;;;;;;;4.00;2.30;;;;;;;10.74;43.68;100506.47;5077151;28;20020;-75
2020/12/31 09:28:30;;;;;;;7.00;2.30;;;;;;;10.75;43.41;100501.81;5074521;28;20037;-75
2020/12/31 09:30:57;;;;;;;3.93;2.30;;;;;;;10.78;43.55;100501.97;5074951;28;20070;-75
2020/12/31 09:33:25;;;;;;;3.20;1.97;;;;;;;10.88;43.15;100502.78;5074336;28;20078;-75
2020/12/31 09:35:51;;;;;;;4.67;2.30;;;;;;;10.85;43.25;100512.44;5073718;28;20063;-76
2020/12/31 09:38:17;;;;;;;3.87;2.30;;;;;;;10.83;43.40;100518.22;5074531;28;20027;-74
2020/12/31 09:40:44;;;;;;;3.80;2.20;;;;;;;10.90;43.05;100515.03;5056257;28;20028;-74
2020/12/31 09:43:10;;;;;;;4.37;1.73;;;;;;;10.90;43.09;100514.22;5076445;28;20055;-75
2020/12/31 09:45:38;;;;;;;4.33;2.03;;;;;;;10.90;43.20;100525.94;5078865;28;20458;-74
2020/12/31 09:48:05;;;;;;;4.00;2.67;;;;;;;10.74;43.81;100522.09;5094548;28;20110;-74
2020/12/31 09:50:31;;;;;;;3.67;2.13;;;;;;;10.82;43.57;100529.47;5094097;28;20039;-74
2020/12/31 09:52:58;;;;;;;8.30;4.33;;;;;;;10.90;43.50;100525.94;5094425;28;20420;-74
2020/12/31 09:55:24;;;;;;;2.60;1.57;;;;;;;10.92;43.34;100531.91;5094284;28;20022;-74
2020/12/31 09:57:51;;;;;;;12.43;8.00;;;;;;;10.94;43.14;100532.38;5094282;28;20016;-74
2020/12/31 10:00:17;;;;;;;9.83;4.43;;;;;;;11.03;43.12;100535.09;5093900;28;20028;-73
2020/12/31 10:02:43;;;;;;;5.97;4.10;;;;;;;11.04;43.00;100539.47;5094219;28;20104;-74
2020/12/31 10:05:08;;;;;;;6.33;4.47;;;;;;;11.08;43.02;100533.03;5094026;28;20044;-75
2020/12/31 10:07:34;;;;;;;3.27;1.97;;;;;;;10.93;43.52;100547.16;5094078;28;20020;-75
2020/12/31 10:10:00;;;;;;;5.00;2.07;;;;;;;11.03;43.29;100535.09;5094024;28;20028;-75
2020/12/31 10:12:26;;;;;;;5.07;1.90;;;;;;;11.44;42.54;100540.09;5094013;28;20355;-74
2020/12/31 10:14:52;;;;;;;6.33;2.80;;;;;;;11.28;43.13;100555.41;5099817;28;20023;-76
2020/12/31 10:17:18;;;;;;;5.03;2.93;;;;;;;11.37;42.93;100539.78;5075715;28;20031;-75
2020/12/31 10:19:43;;;;;;;4.70;2.47;;;;;;;11.43;42.60;100551.38;5093812;28;20053;-75
2020/12/31 10:22:09;;;;;;;4.33;2.27;;;;;;;11.43;43.16;100543.19;5093873;28;20470;-75
2020/12/31 10:24:35;;;;;;;8.33;2.30;;;;;;;11.19;43.83;100539.00;5093810;28;20152;-75
2020/12/31 10:27:01;;;;;;;3.90;2.60;;;;;;;11.62;42.96;100554.56;5108276;28;20499;-75
2020/12/31 10:29:27;;;;;;;6.93;3.13;;;;;;;11.84;42.71;100554.41;5113233;28;20052;-75
2020/12/31 10:31:54;;;;;;;5.07;3.07;;;;;;;11.75;42.88;100550.03;5112156;28;20024;-75
2020/12/31 10:34:20;;;;;;;5.63;3.17;;;;;;;12.03;42.59;100555.97;5112226;28;20496;-75
2020/12/31 10:36:53;;;;;;;9.87;3.87;;;;;;;11.96;42.57;100551.00;5111976;28;20036;-75
2020/12/31 10:39:19;;;;;;;10.70;4.90;;;;;;;12.13;42.61;100558.34;5112007;28;20030;-75
2020/12/31 10:41:46;;;;;;;6.37;3.50;;;;;;;12.25;42.61;100552.19;5112040;28;20020;-75
2020/12/31 10:44:12;;;;;;;6.43;3.00;;;;;;;12.44;42.24;100552.56;5112088;28;20022;-75
2020/12/31 10:46:38;;;;;;;6.90;4.00;;;;;;;12.63;42.08;100552.97;5113691;28;20028;-76
2020/12/31 10:49:03;;;;;;;5.70;2.73;;;;;;;12.63;42.10;100550.22;5113819;28;20501;-75
2020/12/31 10:51:33;;;;;;;5.77;3.23;;;;;;;12.69;41.89;100551.63;5113743;28;20019;-75
2020/12/31 10:53:58;;;;;;;7.93;2.47;;;;;;;12.91;41.79;100560.69;5113768;28;20076;-75
2020/12/31 10:56:24;;;;;;;10.17;4.30;;;;;;;13.05;41.59;100550.28;5113658;28;20024;-75
2020/12/31 10:58:49;;;;;;;9.23;4.67;;;;;;;13.12;41.39;100553.28;5113630;28;20030;-74
2020/12/31 11:01:15;;;;;;;5.43;2.67;;;;;;;13.24;41.34;100549.84;5113591;28;20032;-75
2020/12/31 11:03:44;;;;;;;4.70;2.87;;;;;;;13.27;41.14;100552.72;5113592;28;20024;-78
2020/12/31 11:06:17;;;;;;;2.87;2.30;;;;;;;13.24;40.94;100550.66;5113541;28;20492;-75
2020/12/31 11:08:42;;;;;;;2.17;0.90;;;;;;;13.35;41.14;100556.53;5113417;28;20513;-75
2020/12/31 11:11:08;;;;;;;3.23;1.70;;;;;;;13.18;41.16;100551.94;5112703;28;20043;-75
2020/12/31 11:13:33;;;;;;;3.97;1.77;;;;;;;13.30;40.83;100564.97;5113421;28;20028;-75
2020/12/31 11:15:59;;;;;;;1.50;1.13;;;;;;;13.42;40.86;100550.50;5095111;28;20062;-75
2020/12/31 11:18:24;;;;;;;7.40;2.07;;;;;;;13.49;40.44;100558.97;5113283;28;20089;-74
2020/12/31 11:20:53;;;;;;;2.93;1.37;;;;;;;13.44;39.79;100554.50;5112871;28;20127;-74
2020/12/31 11:23:19;;;;;;;3.67;1.73;;;;;;;13.56;40.06;100567.47;5113296;28;20103;-75
2020/12/31 11:25:44;;;;;;;6.82;1.40;;;;;;;13.59;39.75;100564.03;5113194;28;20115;-74
2020/12/31 11:28:10;;;;;;;7.30;1.30;;;;;;;13.70;39.66;100559.75;5113065;28;20039;-74
2020/12/31 11:30:36;;;;;;;3.20;1.23;;;;;;;13.59;39.44;100567.59;5113139;28;20432;-74
2020/12/31 11:33:01;;;;;;;15.63;12.93;;;;;;;13.55;39.55;100576.84;5094708;28;20031;-73
2020/12/31 11:35:27;;;;;;;3.67;2.10;;;;;;;13.62;39.21;100574.38;5112805;28;20043;-74